Flight Track Log - Related Links

Times and Time Zones

All times are in EDT time to prevent confusion due to time zone crossing. See the CTL18 flight status page for this flight to view local times or setup timezone preferences in your user account.

Time Position Orientation Groundspeed Altitude Reporting Facility
EDT Latitude Longitude Course Direction KTS MPH feet Rate Location/Type
Tue 07:47:00 PM 43.3619 -84.0057 160° South  Level Estimated
Tue 07:48:00 PM 43.3366 -83.9838 148° Southeast  Level FlightAware Approximate
Tue 07:49:00 PM 43.3080 -83.9718 160° South  Level Estimated
Tue 07:50:00 PM 43.2807 -83.9553 156° South  Level FlightAware Approximate
Tue 07:51:00 PM 43.2533 -83.9388 156° South  Level FlightAware Approximate
Tue 07:52:00 PM 43.2247 -83.9271 163° South  Level Estimated
Tue 07:53:00 PM 43.1965 -83.9134 161° South  Level FlightAware Approximate
Tue 07:54:00 PM 43.1683 -83.8997 161° South  Level FlightAware Approximate
Tue 07:55:00 PM 42.9842 -83.8044 160° South 171 197 5,000  Level Cleveland Center
Tue 07:55:00 PM 43.1401 -83.8861 161° South  Level FlightAware Approximate
Tue 07:56:00 PM 43.1115 -83.8746 160° South  Level Estimated
Tue 07:56:01 PM 42.9408 -83.7853 162° South 171 197 5,000  Level Cleveland Center
Tue 07:57:00 PM 43.0835 -83.8603 160° South  Level FlightAware Approximate
Tue 07:58:00 PM 43.0555 -83.8461 160° South  Level FlightAware Approximate
Tue 07:58:03 PM 42.8483 -83.7436 162° South 165 190 5,100  Level Cleveland Center
Tue 07:59:00 PM 43.0275 -83.8318 160° South  Level FlightAware Approximate
Tue 07:59:04 PM 42.8028 -83.7300 168° South 165 190 5,100  Level Cleveland Center
Tue 07:59:59 PM 42.7614 -83.7167 167° South 169 194 5,000 -155 Descending Cleveland Center
Tue 08:00:00 PM 42.9995 -83.8176 160° South  Level FlightAware Approximate
Tue 08:01:00 PM 42.7161 -83.7003 165° South 167 192 4,800  Level Cleveland Center
Tue 08:02:01 PM 42.6664 -83.6836 166° South 182 209 4,300 -375 Descending Cleveland Center
Tue 08:03:08 PM 42.6128 -83.6642 165° South 178 205 4,000 -134 Descending Cleveland Center
Tue 08:04:15 PM 42.5611 -83.6475 167° South 169 194 4,000 47 Level Cleveland Center
Tue 08:05:16 PM 42.5178 -83.6342 167° South 167 192 4,100 -98 Climbing Cleveland Center
Tue 08:06:17 PM 42.4681 -83.6206 169° South 171 197 3,800 -375 Descending Cleveland Center
Tue 08:07:24 PM 42.4161 -83.6094 171° South 179 206 3,300 -293 Descending Cleveland Center
Tue 08:08:20 PM 42.3725 -83.6017 172° South 171 197 3,200 -162 Descending Cleveland Center
Tue 08:09:15 PM 42.3292 -83.5914 170° South 168 193 3,000 -393 Descending Cleveland Center
Tue 08:10:22 PM 42.2750 -83.5831 174° South 168 193 2,400 -627 Descending Cleveland Center
Tue 08:11:29 PM 42.2294 -83.5753 173° South 150 173 1,600 -716 Descending Cleveland Center
Tue 08:13:00 PM 42.2393 -83.5310 160° South  Level Estimated
Tue 08:20:00 PM 42.2393 -83.5310 160° South  Level Estimated
Tue 08:21:00 PM 42.2393 -83.5310 160° South  Level Estimated

Login

Don't have an account? Register now (free) for customized features, flight alerts, and more!